Brighton, Massachusetts
Current Conditions -  °F | °C
As of 4:54 AM on Thursday 23 Oct 2014 (Local Time) from KBOS Reporting Station
Light Rain Light Rain  
Wind Chill: 51°   Ceiling: 1100
Heat Index: 51°   Visibility: 3mi
Dew Point: 50°   Wind: 23mph
Humidity: 96%   Direction: 20°NNE
Pressure: 29.7"   Gusts: 40mph
Location:  42.35°N, 71.15°W
Report Text: KBOS 230854Z 02020G35KT 3SM -RA BR FEW008 BKN011 OVC018 11/10 A2970 RMK AO2 PK WND 01035/0849 SLP057 P0051 60115 T01060100 56016 $
Loading
Personal Weather Stations






























Interactive Weather Map
Tropical Storm Tracking
New forecast layout! Learn more

10-Day Weather Forecast

Advertisements
Track Severe Weather on mobile